Time;durP1;ratioP1;P1;durP2;ratioP2;P2;SDS_P1;SDS_P2;PMS_P1;PMS_P2;Temp;Humidity;BMP_temperature;BMP_pressure;BME280_temperature;BME280_humidity;BME280_pressure;Samples;Min_cycle;Max_cycle;Signal;HPM_P1;HPM_P2
2022/05/22 00:00:27;;;;;;;0.85;0.57;;;12.10;99.90;;;;;;5044036;28;20208;-61
2022/05/22 00:02:54;;;;;;;0.70;0.45;;;12.10;99.90;;;;;;5044972;28;20057;-61
2022/05/22 00:05:21;;;;;;;1.13;0.80;;;12.10;99.90;;;;;;5043189;28;20457;-62
2022/05/22 00:07:48;;;;;;;0.80;0.50;;;12.10;99.90;;;;;;5011016;28;20216;-61
2022/05/22 00:10:15;;;;;;;2.13;0.80;;;12.10;99.90;;;;;;5027050;28;20141;-61
2022/05/22 00:12:42;;;;;;;2.10;0.82;;;12.10;99.90;;;;;;5045069;28;20456;-61
2022/05/22 00:15:10;;;;;;;1.10;0.63;;;12.00;99.90;;;;;;5042417;28;20049;-61
2022/05/22 00:17:36;;;;;;;0.80;0.60;;;12.00;99.90;;;;;;5044499;28;20072;-61
2022/05/22 00:20:04;;;;;;;1.77;0.73;;;12.00;99.90;;;;;;5043152;28;20493;-61
2022/05/22 00:22:31;;;;;;;1.08;0.52;;;11.90;99.90;;;;;;5044217;28;20136;-61
2022/05/22 00:24:58;;;;;;;1.00;0.90;;;11.90;99.90;;;;;;5044138;28;20615;-62
2022/05/22 00:27:26;;;;;;;0.60;0.60;;;11.80;99.90;;;;;;5044976;28;20091;-61
2022/05/22 00:29:53;;;;;;;1.73;0.60;;;11.80;99.90;;;;;;5043829;28;20056;-62
2022/05/22 00:32:20;;;;;;;1.25;0.60;;;11.80;99.90;;;;;;5032423;28;20914;-60
2022/05/22 00:34:47;;;;;;;0.98;0.70;;;11.70;99.90;;;;;;5033776;28;20114;-61
2022/05/22 00:37:13;;;;;;;1.45;0.77;;;11.70;99.90;;;;;;5026853;28;20049;-61
2022/05/22 00:39:41;;;;;;;0.70;0.70;;;11.70;99.90;;;;;;5006869;28;20045;-62
2022/05/22 00:42:18;;;;;;;1.10;0.60;;;11.70;99.90;;;;;;5019036;28;20144;-61
2022/05/22 00:44:45;;;;;;;0.40;0.30;;;11.70;99.90;;;;;;5043937;28;20049;-61
2022/05/22 00:47:12;;;;;;;1.77;0.65;;;11.70;99.90;;;;;;5044443;28;20065;-62
2022/05/22 00:49:42;;;;;;;0.98;0.50;;;11.70;99.90;;;;;;5042939;28;20088;-61
2022/05/22 00:52:20;;;;;;;0.73;0.50;;;11.60;99.90;;;;;;5026980;28;20055;-62
2022/05/22 00:54:49;;;;;;;1.30;0.63;;;11.60;99.90;;;;;;5043390;28;20059;-61
2022/05/22 00:57:17;;;;;;;0.85;0.70;;;11.50;99.90;;;;;;5044786;28;20071;-61
2022/05/22 00:59:49;;;;;;;2.05;0.95;;;11.50;99.90;;;;;;5043039;28;20053;-61
2022/05/22 01:02:16;;;;;;;1.00;0.50;;;11.50;99.90;;;;;;5025965;28;20136;-61
2022/05/22 01:04:44;;;;;;;1.23;0.52;;;11.50;99.90;;;;;;5042318;28;20207;-61
2022/05/22 01:07:11;;;;;;;0.98;0.45;;;11.50;99.90;;;;;;5043432;28;20044;-61
2022/05/22 01:09:38;;;;;;;0.80;0.50;;;11.40;99.90;;;;;;5043612;28;20117;-61
2022/05/22 01:12:14;;;;;;;1.08;0.75;;;11.40;99.90;;;;;;5043433;28;20132;-61
2022/05/22 01:14:41;;;;;;;1.02;0.60;;;11.40;99.90;;;;;;5025113;28;20406;-61
2022/05/22 01:17:09;;;;;;;0.57;0.50;;;11.30;99.90;;;;;;5026509;28;20156;-61
2022/05/22 01:19:36;;;;;;;1.33;0.80;;;11.30;99.90;;;;;;5024992;28;20060;-61
2022/05/22 01:22:08;;;;;;;0.90;0.57;;;11.30;99.90;;;;;;5043230;28;20110;-61
2022/05/22 01:24:35;;;;;;;0.73;0.60;;;11.30;99.90;;;;;;5041751;28;20127;-62
2022/05/22 01:27:04;;;;;;;1.00;0.60;;;11.30;99.90;;;;;;5042691;28;20730;-61
2022/05/22 01:29:37;;;;;;;0.98;0.57;;;11.20;99.90;;;;;;5025572;28;20589;-62
2022/05/22 01:32:04;;;;;;;1.08;0.70;;;11.20;99.90;;;;;;5045343;28;20128;-61
2022/05/22 01:34:31;;;;;;;0.68;0.45;;;11.10;99.90;;;;;;5042367;28;20512;-62
2022/05/22 01:36:58;;;;;;;1.13;0.50;;;11.10;99.90;;;;;;5043816;28;20049;-61
2022/05/22 01:39:25;;;;;;;1.05;0.70;;;11.10;99.90;;;;;;5025804;28;20587;-61
2022/05/22 01:41:51;;;;;;;1.27;0.80;;;11.10;99.90;;;;;;5044762;28;20142;-61
2022/05/22 01:44:18;;;;;;;0.93;0.70;;;11.10;99.90;;;;;;5026354;28;20076;-61
2022/05/22 01:46:45;;;;;;;1.20;0.57;;;11.10;99.90;;;;;;5046279;28;20208;-61
2022/05/22 01:49:12;;;;;;;0.80;0.50;;;11.10;99.90;;;;;;5044520;28;20057;-61
2022/05/22 01:51:40;;;;;;;0.98;0.60;;;11.10;99.90;;;;;;5045106;28;20084;-61
2022/05/22 01:54:07;;;;;;;0.85;0.57;;;11.00;99.90;;;;;;5045923;28;20088;-61
2022/05/22 01:56:34;;;;;;;0.80;0.50;;;11.00;99.90;;;;;;5046592;28;20057;-62
2022/05/22 01:59:01;;;;;;;0.68;0.50;;;11.00;99.90;;;;;;5045754;28;20131;-61
2022/05/22 02:01:28;;;;;;;0.88;0.52;;;11.00;99.90;;;;;;5046481;28;20141;-61
2022/05/22 02:03:55;;;;;;;1.10;0.63;;;11.00;99.90;;;;;;5045499;28;20052;-61
2022/05/22 02:06:21;;;;;;;0.93;0.52;;;11.00;99.90;;;;;;5045143;28;20139;-61
2022/05/22 02:08:48;;;;;;;0.60;0.50;;;10.90;99.90;;;;;;5046158;28;20464;-61
2022/05/22 02:11:15;;;;;;;1.13;0.70;;;10.90;99.90;;;;;;5046325;28;20120;-61
2022/05/22 02:13:47;;;;;;;0.75;0.70;;;10.80;99.90;;;;;;5045543;28;20132;-59
2022/05/22 02:16:15;;;;;;;0.57;0.50;;;10.80;99.90;;;;;;5045994;28;20076;-61
2022/05/22 02:18:41;;;;;;;0.63;0.50;;;10.70;99.90;;;;;;5045231;28;20049;-60
2022/05/22 02:21:08;;;;;;;0.85;0.63;;;10.70;99.90;;;;;;5045435;28;20045;-61
2022/05/22 02:23:35;;;;;;;1.35;0.50;;;10.70;99.90;;;;;;5045978;28;20139;-61
2022/05/22 02:26:02;;;;;;;1.33;0.90;;;10.70;99.90;;;;;;5046025;28;20083;-62
2022/05/22 02:28:30;;;;;;;0.80;0.65;;;10.70;99.90;;;;;;5045525;28;20140;-61
2022/05/22 02:31:01;;;;;;;0.88;0.57;;;10.70;99.90;;;;;;5045622;28;20549;-61
2022/05/22 02:33:28;;;;;;;0.88;0.55;;;10.70;99.90;;;;;;5045581;28;20063;-61
2022/05/22 02:35:54;;;;;;;1.52;0.85;;;10.70;99.90;;;;;;5043836;28;20079;-61
2022/05/22 02:38:22;;;;;;;0.45;0.45;;;10.60;99.90;;;;;;5045790;28;20095;-61
2022/05/22 02:40:49;;;;;;;0.73;0.43;;;10.60;99.90;;;;;;5045461;28;20053;-61
2022/05/22 02:43:15;;;;;;;0.88;0.60;;;10.50;99.90;;;;;;5027067;28;20087;-60
2022/05/22 02:45:42;;;;;;;1.33;0.63;;;10.50;99.90;;;;;;5045513;28;20444;-61
2022/05/22 02:48:10;;;;;;;1.10;0.60;;;10.50;99.90;;;;;;5045908;28;20077;-61
2022/05/22 02:50:37;;;;;;;1.50;0.60;;;10.60;99.90;;;;;;5043527;28;20048;-61
2022/05/22 02:53:05;;;;;;;0.40;0.40;;;10.60;99.90;;;;;;5027551;28;20599;-61
2022/05/22 02:55:32;;;;;;;0.65;0.50;;;10.60;99.90;;;;;;5044694;28;20056;-62
2022/05/22 02:57:58;;;;;;;0.77;0.57;;;10.60;99.90;;;;;;5027466;28;20083;-62
2022/05/22 03:00:26;;;;;;;0.68;0.50;;;10.60;99.90;;;;;;5044269;28;20136;-62
2022/05/22 03:02:53;;;;;;;0.73;0.60;;;10.60;99.90;;;;;;5045120;28;20160;-62
2022/05/22 03:05:20;;;;;;;0.70;0.60;;;10.50;99.90;;;;;;5043671;28;20609;-61
2022/05/22 03:07:48;;;;;;;1.65;0.47;;;10.50;99.90;;;;;;5045894;28;20124;-61
2022/05/22 03:10:16;;;;;;;1.27;0.60;;;10.50;99.90;;;;;;5044556;28;20044;-61
2022/05/22 03:12:44;;;;;;;1.42;0.50;;;10.50;99.90;;;;;;5045752;28;20178;-61
2022/05/22 03:15:12;;;;;;;1.92;1.00;;;10.50;99.90;;;;;;5044518;28;20148;-61
2022/05/22 03:17:39;;;;;;;0.75;0.52;;;10.30;99.90;;;;;;5045782;28;20136;-61
2022/05/22 03:20:07;;;;;;;0.80;0.60;;;10.30;99.90;;;;;;5043865;28;20080;-62
2022/05/22 03:22:33;;;;;;;0.77;0.68;;;10.30;99.90;;;;;;5045161;28;20092;-62
2022/05/22 03:25:01;;;;;;;1.58;0.80;;;10.30;99.90;;;;;;5045354;28;20132;-61
2022/05/22 03:27:27;;;;;;;0.73;0.50;;;10.40;99.90;;;;;;5045744;28;20053;-61
2022/05/22 03:29:54;;;;;;;0.80;0.50;;;10.30;99.90;;;;;;5044254;28;20085;-62
2022/05/22 03:32:21;;;;;;;0.50;0.50;;;10.30;99.90;;;;;;5045284;28;20072;-61
2022/05/22 03:34:54;;;;;;;0.70;0.50;;;10.40;99.90;;;;;;5043875;28;20106;-62
2022/05/22 03:37:24;;;;;;;1.00;0.50;;;10.30;99.90;;;;;;5045041;28;20136;-61
2022/05/22 03:39:52;;;;;;;1.73;0.80;;;10.30;99.90;;;;;;5044780;28;20626;-61
2022/05/22 03:42:19;;;;;;;0.77;0.70;;;10.30;99.90;;;;;;5044750;28;20132;-61
2022/05/22 03:44:46;;;;;;;0.68;0.50;;;10.20;99.90;;;;;;5044556;28;20709;-62
2022/05/22 03:47:13;;;;;;;0.77;0.50;;;10.10;99.90;;;;;;5045709;28;20132;-60
2022/05/22 03:49:45;;;;;;;1.02;0.60;;;10.20;99.90;;;;;;5048063;28;20132;-61
2022/05/22 03:52:12;;;;;;;0.88;0.57;;;10.20;99.90;;;;;;5048192;28;20059;-60
2022/05/22 03:54:38;;;;;;;1.75;0.80;;;10.20;99.90;;;;;;5048549;28;20084;-61
2022/05/22 03:57:05;;;;;;;1.10;0.70;;;10.20;99.90;;;;;;5048576;28;20088;-61
2022/05/22 03:59:32;;;;;;;0.90;0.70;;;10.20;99.90;;;;;;5029998;28;20140;-61
2022/05/22 04:01:59;;;;;;;0.80;0.60;;;10.20;99.90;;;;;;5048782;28;20048;-61
2022/05/22 04:04:25;;;;;;;1.52;0.80;;;10.20;99.90;;;;;;5048063;28;20116;-61
2022/05/22 04:06:52;;;;;;;1.95;0.60;;;10.20;99.90;;;;;;5047845;28;20056;-61
2022/05/22 04:09:19;;;;;;;0.43;0.43;;;10.20;99.90;;;;;;5048225;28;20144;-61
2022/05/22 04:11:45;;;;;;;0.85;0.60;;;10.20;99.90;;;;;;5048528;28;20049;-61
2022/05/22 04:14:12;;;;;;;0.90;0.63;;;10.20;99.90;;;;;;5048195;28;20132;-61
2022/05/22 04:16:39;;;;;;;0.90;0.65;;;10.20;99.90;;;;;;5048341;28;20527;-61
2022/05/22 04:19:06;;;;;;;1.77;0.60;;;10.20;99.90;;;;;;5047688;28;20083;-61
2022/05/22 04:21:32;;;;;;;1.23;0.77;;;10.30;99.90;;;;;;5047457;28;20493;-61
2022/05/22 04:26:44;;;;;;;0.90;0.60;;;10.30;99.90;;;;;;5048341;28;20128;-61
2022/05/22 04:29:12;;;;;;;1.35;0.63;;;10.30;99.90;;;;;;5047764;28;20045;-61
2022/05/22 04:31:38;;;;;;;0.80;0.63;;;10.30;99.90;;;;;;5030503;28;20133;-61
2022/05/22 04:34:05;;;;;;;1.10;0.68;;;10.30;99.90;;;;;;5047148;28;20124;-62
2022/05/22 04:36:32;;;;;;;1.95;1.15;;;10.30;99.90;;;;;;5047504;28;20045;-61
2022/05/22 04:38:59;;;;;;;1.08;0.50;;;10.30;99.90;;;;;;5047738;28;20682;-61
2022/05/22 04:41:26;;;;;;;0.80;0.50;;;10.30;99.90;;;;;;5048170;28;20140;-61
2022/05/22 04:43:52;;;;;;;0.70;0.40;;;10.30;99.90;;;;;;5047223;28;20136;-61
2022/05/22 04:46:19;;;;;;;1.17;0.57;;;10.40;99.90;;;;;;5048043;28;20551;-61
2022/05/22 04:48:48;;;;;;;0.82;0.60;;;10.40;99.90;;;;;;5043587;28;20055;-61
2022/05/22 04:51:14;;;;;;;4.57;0.95;;;10.40;99.90;;;;;;5045283;28;20156;-61
2022/05/22 04:53:41;;;;;;;0.70;0.52;;;10.50;99.90;;;;;;5046208;28;20167;-62
2022/05/22 04:56:08;;;;;;;0.50;0.50;;;10.50;99.90;;;;;;5045890;28;20149;-62
2022/05/22 04:58:34;;;;;;;1.50;0.88;;;10.50;99.90;;;;;;5042550;28;20406;-60
2022/05/22 05:01:08;;;;;;;1.63;0.60;;;10.50;99.90;;;;;;5039913;28;20140;-61
2022/05/22 05:03:35;;;;;;;1.02;0.52;;;10.60;99.90;;;;;;5030531;28;20057;-61
2022/05/22 05:06:02;;;;;;;0.68;0.50;;;10.60;99.90;;;;;;5031560;28;20045;-63
2022/05/22 05:08:29;;;;;;;1.00;0.75;;;10.60;99.90;;;;;;5037131;28;20422;-61
2022/05/22 05:11:00;;;;;;;1.10;0.75;;;10.70;99.90;;;;;;5043307;28;20126;-62
2022/05/22 05:13:27;;;;;;;0.68;0.50;;;10.80;99.90;;;;;;5043350;28;20100;-61
2022/05/22 05:16:12;;;;;;;0.85;0.60;;;10.80;99.90;;;;;;5043462;28;20053;-62
2022/05/22 05:18:39;;;;;;;0.70;0.50;;;10.80;99.90;;;;;;5036195;28;20045;-60
2022/05/22 05:21:11;;;;;;;1.10;0.60;;;10.90;99.90;;;;;;5038207;28;20125;-62
2022/05/22 05:23:38;;;;;;;1.02;0.50;;;10.90;99.90;;;;;;5025501;28;20090;-62
2022/05/22 05:26:05;;;;;;;0.65;0.55;;;10.90;99.90;;;;;;5043410;28;20127;-62
2022/05/22 05:28:31;;;;;;;0.50;0.50;;;11.00;99.90;;;;;;5031018;28;20160;-62
2022/05/22 05:30:58;;;;;;;1.13;0.60;;;11.00;99.90;;;;;;5043084;28;20467;-62
2022/05/22 05:33:25;;;;;;;0.90;0.60;;;11.00;99.90;;;;;;5043047;28;20132;-61
2022/05/22 05:35:52;;;;;;;1.10;0.70;;;11.00;99.90;;;;;;5042065;28;20049;-61
2022/05/22 05:38:19;;;;;;;0.95;0.60;;;11.00;99.90;;;;;;5028653;28;20128;-61
2022/05/22 05:41:05;;;;;;;0.90;0.60;;;11.00;99.90;;;;;;5044912;28;20059;-61
2022/05/22 05:43:32;;;;;;;0.82;0.50;;;11.10;99.90;;;;;;5042599;28;20499;-63
2022/05/22 05:45:59;;;;;;;1.00;0.73;;;11.10;99.90;;;;;;5036508;28;20041;-64
2022/05/22 05:48:37;;;;;;;1.40;0.73;;;11.20;99.90;;;;;;5029397;28;20156;-61
2022/05/22 05:51:03;;;;;;;0.75;0.50;;;11.20;99.90;;;;;;5045299;28;20091;-61
2022/05/22 05:53:30;;;;;;;0.70;0.60;;;11.30;99.90;;;;;;5046333;28;20083;-62
2022/05/22 05:56:04;;;;;;;0.98;0.70;;;11.30;99.90;;;;;;5035815;28;20056;-62
2022/05/22 05:58:44;;;;;;;0.77;0.60;;;11.40;99.90;;;;;;5014743;28;20053;-61
2022/05/22 06:01:12;;;;;;;0.82;0.40;;;11.50;99.90;;;;;;5044528;28;20088;-62
2022/05/22 06:03:39;;;;;;;1.00;0.65;;;11.60;99.90;;;;;;5035566;28;20498;-61
2022/05/22 06:06:07;;;;;;;0.73;0.55;;;11.60;99.90;;;;;;5030719;28;20053;-62
2022/05/22 06:08:34;;;;;;;0.65;0.50;;;11.70;99.90;;;;;;5036660;28;20084;-62
2022/05/22 06:11:01;;;;;;;0.77;0.40;;;11.80;99.90;;;;;;5042098;28;20084;-62
2022/05/22 06:13:28;;;;;;;0.70;0.32;;;11.90;99.90;;;;;;5042399;28;20481;-62
2022/05/22 06:15:54;;;;;;;1.15;0.40;;;12.00;99.90;;;;;;5042045;28;20136;-61
2022/05/22 06:18:21;;;;;;;0.73;0.50;;;12.10;99.90;;;;;;5045057;28;20094;-62
2022/05/22 06:20:48;;;;;;;0.90;0.60;;;12.20;99.90;;;;;;5044007;28;20055;-61
2022/05/22 06:23:15;;;;;;;0.70;0.40;;;12.20;99.90;;;;;;5027111;28;20095;-62
2022/05/22 06:25:44;;;;;;;1.02;0.60;;;12.30;99.90;;;;;;5038892;28;20131;-62
2022/05/22 06:28:12;;;;;;;0.88;0.50;;;12.40;99.90;;;;;;5033104;28;20068;-62
2022/05/22 06:30:39;;;;;;;0.80;0.45;;;12.40;99.90;;;;;;5037210;28;20128;-62
2022/05/22 06:33:10;;;;;;;0.60;0.50;;;12.50;99.90;;;;;;5037960;28;20045;-61
2022/05/22 06:35:40;;;;;;;0.68;0.47;;;12.60;99.90;;;;;;5027485;28;20049;-62
2022/05/22 06:38:08;;;;;;;1.05;0.50;;;12.70;99.90;;;;;;5042167;28;20131;-62
2022/05/22 06:40:37;;;;;;;0.70;0.47;;;12.80;99.90;;;;;;5041987;28;20124;-62
2022/05/22 06:43:04;;;;;;;0.52;0.32;;;12.80;99.90;;;;;;5023726;28;20528;-62
2022/05/22 06:45:31;;;;;;;0.50;0.50;;;12.90;99.90;;;;;;5036040;28;20036;-61
2022/05/22 06:47:57;;;;;;;0.93;0.35;;;13.00;99.90;;;;;;5022846;28;20160;-62
2022/05/22 06:50:24;;;;;;;0.38;0.30;;;13.10;99.90;;;;;;5037089;28;20125;-62
2022/05/22 06:52:52;;;;;;;0.82;0.50;;;13.20;99.90;;;;;;5036896;28;20063;-62
2022/05/22 06:55:19;;;;;;;1.50;0.50;;;13.30;99.90;;;;;;5040834;28;20143;-61
2022/05/22 06:57:46;;;;;;;0.60;0.50;;;13.40;99.90;;;;;;5039425;28;20132;-62
2022/05/22 07:00:14;;;;;;;0.65;0.40;;;13.50;99.90;;;;;;5034232;28;20164;-62
2022/05/22 07:02:41;;;;;;;0.68;0.50;;;13.70;99.90;;;;;;5019704;28;20103;-62
2022/05/22 07:05:09;;;;;;;1.20;0.40;;;13.90;99.90;;;;;;5019768;28;20049;-62
2022/05/22 07:07:35;;;;;;;1.23;0.40;;;14.00;99.90;;;;;;5030479;28;20560;-62
2022/05/22 07:10:02;;;;;;;1.30;0.60;;;14.20;99.90;;;;;;5040661;28;20559;-61
2022/05/22 07:12:29;;;;;;;0.70;0.50;;;14.40;99.90;;;;;;5038443;28;20124;-62
2022/05/22 07:14:56;;;;;;;1.05;0.60;;;14.60;99.90;;;;;;5042987;28;20087;-62
2022/05/22 07:17:26;;;;;;;1.08;0.60;;;14.70;99.90;;;;;;5040092;28;20083;-61
2022/05/22 07:19:54;;;;;;;0.93;0.47;;;14.90;99.90;;;;;;5019801;28;20128;-62
2022/05/22 07:22:21;;;;;;;1.67;0.43;;;15.10;99.90;;;;;;5044859;28;20060;-59
2022/05/22 07:24:47;;;;;;;0.80;0.50;;;15.20;99.90;;;;;;5048571;28;20044;-62
2022/05/22 07:27:14;;;;;;;1.20;0.57;;;15.30;99.90;;;;;;5049016;28;20079;-61
2022/05/22 07:29:41;;;;;;;1.65;0.93;;;15.40;99.90;;;;;;5048153;28;20460;-62
2022/05/22 07:32:13;;;;;;;0.35;0.35;;;15.50;99.90;;;;;;5048962;28;20468;-62
2022/05/22 07:34:40;;;;;;;0.38;0.30;;;15.50;99.90;;;;;;5047741;28;20055;-60
2022/05/22 07:37:08;;;;;;;1.27;0.40;;;15.60;99.90;;;;;;5048433;28;20084;-62
2022/05/22 07:39:35;;;;;;;0.60;0.40;;;15.60;99.90;;;;;;5048638;28;20140;-62
2022/05/22 07:42:02;;;;;;;0.30;0.30;;;15.70;99.90;;;;;;5048507;28;20593;-61
2022/05/22 07:44:29;;;;;;;0.98;0.30;;;15.70;99.90;;;;;;5048007;28;20095;-61
2022/05/22 07:46:56;;;;;;;1.02;0.50;;;15.80;99.90;;;;;;5048533;28;20083;-61
2022/05/22 07:52:09;;;;;;;0.73;0.30;;;15.80;99.90;;;;;;5048454;28;20998;-61
2022/05/22 07:54:51;;;;;;;0.65;0.40;;;15.90;99.90;;;;;;5047533;28;20052;-62
2022/05/22 07:57:17;;;;;;;0.60;0.40;;;15.90;99.90;;;;;;5048519;28;20094;-62
2022/05/22 07:59:44;;;;;;;1.13;0.70;;;16.00;99.90;;;;;;5029706;28;20156;-62
2022/05/22 08:02:14;;;;;;;0.73;0.32;;;16.00;99.90;;;;;;5048454;28;20152;-62
2022/05/22 08:04:41;;;;;;;0.63;0.40;;;16.00;99.90;;;;;;5046639;28;20484;-61
2022/05/22 08:07:08;;;;;;;0.50;0.30;;;16.10;99.90;;;;;;5047956;28;20059;-59
2022/05/22 08:09:35;;;;;;;0.68;0.30;;;16.10;99.90;;;;;;5048073;28;20076;-62
2022/05/22 08:12:02;;;;;;;0.70;0.28;;;16.20;99.90;;;;;;5048427;28;20707;-62
2022/05/22 08:14:29;;;;;;;0.38;0.35;;;16.20;99.90;;;;;;5047434;28;20132;-60
2022/05/22 08:17:00;;;;;;;0.40;0.40;;;16.30;99.90;;;;;;5048181;28;20595;-59
2022/05/22 08:19:27;;;;;;;1.15;0.50;;;16.30;99.90;;;;;;5046823;28;20052;-59
2022/05/22 08:21:54;;;;;;;1.00;0.40;;;16.40;99.90;;;;;;5047479;28;20049;-62
2022/05/22 08:24:21;;;;;;;0.57;0.40;;;16.40;99.90;;;;;;5047686;28;20088;-62
2022/05/22 08:26:48;;;;;;;0.55;0.50;;;16.40;99.90;;;;;;5029848;28;20063;-62
2022/05/22 08:29:14;;;;;;;0.65;0.40;;;16.50;99.90;;;;;;5047329;28;20135;-62
2022/05/22 08:31:41;;;;;;;1.63;0.63;;;16.60;99.90;;;;;;5047863;28;20080;-62
2022/05/22 08:34:09;;;;;;;0.57;0.30;;;16.60;99.90;;;;;;5046096;28;20061;-62
2022/05/22 08:36:35;;;;;;;1.33;0.40;;;16.70;99.90;;;;;;5046766;28;20122;-62
2022/05/22 08:39:03;;;;;;;0.70;0.32;;;16.80;99.90;;;;;;5047332;28;20045;-62
2022/05/22 08:41:40;;;;;;;1.40;0.57;;;16.70;99.90;;;;;;5047816;28;20045;-62
2022/05/22 08:44:16;;;;;;;0.90;0.32;;;16.80;99.90;;;;;;5030199;28;20475;-61
2022/05/22 08:46:54;;;;;;;0.55;0.35;;;16.90;99.90;;;;;;5029515;28;20081;-62
2022/05/22 08:49:51;;;;;;;0.60;0.35;;;17.00;99.90;;;;;;5046395;28;20128;-62
2022/05/22 08:52:36;;;;;;;1.38;0.50;;;17.00;99.90;;;;;;5046739;28;20084;-59
2022/05/22 08:55:16;;;;;;;0.88;0.45;;;17.10;99.90;;;;;;5046634;28;20049;-60
2022/05/22 09:00:51;;;;;;;0.47;0.40;;;17.30;99.90;;;;;;5034166;28;20460;-62
2022/05/22 09:03:18;;;;;;;0.90;0.50;;;17.40;99.90;;;;;;5021062;28;20215;-61
2022/05/22 09:05:46;;;;;;;0.70;0.35;;;17.40;99.90;;;;;;5019489;28;20144;-62
2022/05/22 09:08:19;;;;;;;1.30;0.70;;;17.40;99.90;;;;;;5020722;28;20075;-61
2022/05/22 09:10:58;;;;;;;0.50;0.40;;;17.60;99.90;;;;;;5039509;28;20127;-61
2022/05/22 09:13:50;;;;;;;0.50;0.40;;;17.70;99.90;;;;;;5038561;28;20066;-61
2022/05/22 09:16:27;;;;;;;0.47;0.45;;;17.70;99.90;;;;;;5005676;28;20127;-61
2022/05/22 09:19:08;;;;;;;0.70;0.45;;;17.80;99.90;;;;;;5037664;28;20375;-62
2022/05/22 09:22:12;;;;;;;0.80;0.50;;;17.90;99.90;;;;;;5040268;28;20246;-61
2022/05/22 09:24:48;;;;;;;2.08;0.80;;;18.00;99.90;;;;;;5037543;28;20044;-61
2022/05/22 09:27:41;;;;;;;0.75;0.50;;;18.10;99.90;;;;;;5033461;28;20128;-62
2022/05/22 09:30:08;;;;;;;1.27;0.47;;;18.20;99.90;;;;;;5032102;28;20445;-62
2022/05/22 09:33:13;;;;;;;0.50;0.30;;;18.30;99.90;;;;;;5036081;28;20044;-60
2022/05/22 09:36:04;;;;;;;1.63;0.73;;;18.40;99.90;;;;;;4980851;28;20049;-61
2022/05/22 09:39:05;;;;;;;0.77;0.45;;;18.50;99.90;;;;;;5039770;28;20068;-61
2022/05/22 09:41:50;;;;;;;1.35;0.50;;;18.40;99.90;;;;;;5035369;28;20129;-61
2022/05/22 09:44:25;;;;;;;1.00;0.60;;;18.50;99.90;;;;;;5019863;28;20045;-62
2022/05/22 09:47:25;;;;;;;1.27;0.50;;;18.50;99.90;;;;;;5016646;28;20433;-62
2022/05/22 09:50:04;;;;;;;0.93;0.47;;;18.60;99.90;;;;;;5019656;28;20057;-61
2022/05/22 09:52:50;;;;;;;1.20;0.60;;;18.70;99.90;;;;;;5036513;28;20045;-61
2022/05/22 09:55:20;;;;;;;1.00;0.50;;;18.80;99.90;;;;;;5036691;28;20047;-61
2022/05/22 09:58:11;;;;;;;0.93;0.52;;;18.80;99.90;;;;;;5012031;28;20139;-62
2022/05/22 10:01:11;;;;;;;0.93;0.68;;;18.90;99.90;;;;;;5029394;28;20133;-61
2022/05/22 10:03:40;;;;;;;1.38;0.40;;;19.10;99.90;;;;;;5028932;28;20164;-61
2022/05/22 10:06:38;;;;;;;0.98;0.57;;;19.20;99.90;;;;;;5038794;28;20064;-61
2022/05/22 10:09:14;;;;;;;1.35;0.60;;;19.30;99.90;;;;;;5039212;28;20583;-61
2022/05/22 10:12:26;;;;;;;1.13;0.60;;;19.30;99.90;;;;;;5016066;28;20053;-61
2022/05/22 10:15:21;;;;;;;1.15;0.70;;;19.30;99.90;;;;;;4994237;28;20069;-62
2022/05/22 10:18:26;;;;;;;0.85;0.30;;;19.40;99.90;;;;;;5035437;28;20405;-61
2022/05/22 10:20:56;;;;;;;1.05;0.50;;;19.40;99.90;;;;;;5016914;28;20509;-62
2022/05/22 10:23:35;;;;;;;1.15;0.50;;;19.60;99.90;;;;;;5026511;28;20128;-61
2022/05/22 10:26:20;;;;;;;1.13;0.50;;;19.60;99.90;;;;;;5022092;28;20083;-61
2022/05/22 10:28:54;;;;;;;2.58;1.48;;;19.50;99.80;;;;;;5026663;28;20137;-61
2022/05/22 10:31:25;;;;;;;1.75;0.77;;;19.30;99.90;;;;;;5016401;28;20143;-60
2022/05/22 10:34:04;;;;;;;1.48;0.50;;;19.30;99.90;;;;;;5029840;28;20053;-61
2022/05/22 10:36:34;;;;;;;0.85;0.60;;;19.30;99.90;;;;;;5012306;28;20045;-61
2022/05/22 10:39:04;;;;;;;1.17;0.50;;;19.30;99.90;;;;;;5016113;28;20457;-60
2022/05/22 10:44:23;;;;;;;0.55;0.50;;;19.70;99.80;;;;;;5018679;28;20128;-60
2022/05/22 10:46:52;;;;;;;0.65;0.40;;;19.80;99.80;;;;;;5015036;28;20045;-58
2022/05/22 10:49:21;;;;;;;1.00;0.50;;;19.80;99.80;;;;;;5033057;28;20095;-59
2022/05/22 10:51:59;;;;;;;0.47;0.40;;;19.90;99.90;;;;;;5007217;28;20132;-59
2022/05/22 10:54:29;;;;;;;1.50;0.80;;;20.00;99.90;;;;;;5022900;28;20054;-59
2022/05/22 10:57:18;;;;;;;1.52;0.40;;;20.00;99.90;;;;;;5030634;28;20165;-59
2022/05/22 10:59:45;;;;;;;1.00;0.60;;;20.10;99.90;;;;;;5035371;28;20107;-59
2022/05/22 11:02:19;;;;;;;1.05;0.75;;;20.00;99.90;;;;;;5016626;28;20072;-59
2022/05/22 11:04:47;;;;;;;1.77;0.80;;;20.10;99.90;;;;;;5027152;28;20053;-60
2022/05/22 11:07:14;;;;;;;1.23;0.68;;;20.30;99.90;;;;;;5033143;28;20037;-59
2022/05/22 11:09:50;;;;;;;1.98;1.02;;;20.30;99.20;;;;;;4985965;28;20058;-60
2022/05/22 11:12:25;;;;;;;2.55;1.17;;;20.50;99.90;;;;;;5035777;28;20060;-59
2022/05/22 11:15:06;;;;;;;0.85;0.55;;;20.60;99.90;;;;;;5034091;28;21021;-59
2022/05/22 11:17:33;;;;;;;1.02;0.50;;;20.80;98.00;;;;;;5017250;28;20154;-60
2022/05/22 11:20:22;;;;;;;0.70;0.50;;;20.90;98.30;;;;;;5035107;28;20056;-59
2022/05/22 11:23:07;;;;;;;1.17;0.55;;;21.10;99.80;;;;;;5018637;28;20256;-59
2022/05/22 11:25:38;;;;;;;2.47;1.08;;;21.50;99.00;;;;;;5013848;28;20136;-60
2022/05/22 11:28:15;;;;;;;1.35;0.63;;;21.80;96.40;;;;;;5002487;28;20129;-58
2022/05/22 11:31:02;;;;;;;1.45;0.68;;;22.10;97.10;;;;;;5036183;28;20049;-58
2022/05/22 11:33:47;;;;;;;1.42;0.70;;;22.10;95.90;;;;;;5020372;28;20147;-60
2022/05/22 11:36:17;;;;;;;1.10;0.52;;;22.40;96.80;;;;;;5018859;28;20061;-55
2022/05/22 11:38:52;;;;;;;0.63;0.50;;;22.80;95.70;;;;;;5036886;28;20103;-52
2022/05/22 11:41:44;;;;;;;1.27;0.70;;;23.00;92.60;;;;;;5020098;28;20679;-56
2022/05/22 11:44:38;;;;;;;1.15;0.60;;;22.90;93.10;;;;;;4972980;28;20120;-57
2022/05/22 11:47:39;;;;;;;2.72;0.90;;;22.80;92.60;;;;;;5019367;28;20148;-54
2022/05/22 11:50:08;;;;;;;0.90;0.55;;;22.80;92.50;;;;;;5027274;28;20085;-54
2022/05/22 11:52:59;;;;;;;1.08;0.52;;;23.10;93.50;;;;;;5016570;28;20084;-55
2022/05/22 11:55:46;;;;;;;1.02;0.70;;;23.40;91.80;;;;;;5007665;28;20081;-53
2022/05/22 11:58:16;;;;;;;0.80;0.60;;;23.40;90.10;;;;;;5027652;28;20140;-55
2022/05/22 12:01:05;;;;;;;1.73;0.52;;;23.70;90.40;;;;;;5030662;28;20097;-55
2022/05/22 12:03:49;;;;;;;1.75;0.90;;;23.80;90.10;;;;;;5036314;28;20597;-55
2022/05/22 12:06:28;;;;;;;1.33;0.70;;;24.20;90.00;;;;;;5010365;28;20128;-55
2022/05/22 12:09:19;;;;;;;2.63;1.20;;;24.40;87.10;;;;;;5034655;28;20220;-55
2022/05/22 12:12:12;;;;;;;1.85;1.00;;;24.10;88.40;;;;;;5040573;28;20049;-53
2022/05/22 12:15:19;;;;;;;1.70;0.70;;;24.20;88.50;;;;;;5020823;28;20136;-56
2022/05/22 12:17:55;;;;;;;0.98;0.70;;;24.30;89.50;;;;;;5021349;28;20160;-56
2022/05/22 12:20:24;;;;;;;1.48;0.70;;;24.30;85.70;;;;;;5017895;28;20049;-54
2022/05/22 12:23:15;;;;;;;1.52;0.82;;;24.30;84.90;;;;;;5035825;28;20135;-54
2022/05/22 12:25:48;;;;;;;0.85;0.60;;;24.40;85.30;;;;;;5016647;28;20179;-56
2022/05/22 12:28:24;;;;;;;0.75;0.45;;;25.00;87.90;;;;;;5035937;28;20401;-56
2022/05/22 12:30:52;;;;;;;0.95;0.32;;;25.60;83.10;;;;;;5017494;28;20048;-53
2022/05/22 12:33:19;;;;;;;0.98;0.50;;;26.00;82.30;;;;;;5008300;28;20049;-56
2022/05/22 12:35:46;;;;;;;2.38;0.80;;;26.00;81.90;;;;;;5018594;28;20160;-56
2022/05/22 12:38:14;;;;;;;0.80;0.45;;;26.10;82.40;;;;;;4999062;28;20470;-56
2022/05/22 12:41:10;;;;;;;1.15;0.70;;;26.30;84.90;;;;;;5037897;28;20550;-56
2022/05/22 12:43:37;;;;;;;0.45;0.45;;;26.20;81.40;;;;;;5015631;28;20053;-56
2022/05/22 12:46:04;;;;;;;0.98;0.55;;;26.80;82.70;;;;;;5014617;28;20080;-58
2022/05/22 12:48:34;;;;;;;1.70;0.68;;;27.30;84.30;;;;;;5014832;28;20071;-58
2022/05/22 12:51:08;;;;;;;1.30;0.60;;;27.70;78.60;;;;;;5029335;28;20045;-57
2022/05/22 12:53:35;;;;;;;1.05;0.65;;;27.90;77.60;;;;;;5027024;28;20052;-57
2022/05/22 12:56:29;;;;;;;1.20;0.73;;;28.30;75.50;;;;;;5027321;28;20045;-57
2022/05/22 12:59:00;;;;;;;1.00;0.60;;;27.90;72.40;;;;;;5026877;28;20116;-56
2022/05/22 13:01:39;;;;;;;0.95;0.60;;;28.00;70.50;;;;;;5029758;28;20152;-56
2022/05/22 13:04:15;;;;;;;1.00;0.63;;;27.80;71.70;;;;;;5022164;28;20057;-58
2022/05/22 13:06:54;;;;;;;1.48;0.75;;;28.10;69.80;;;;;;5032079;28;20359;-56
2022/05/22 13:09:31;;;;;;;1.60;0.77;;;28.10;72.30;;;;;;5014506;28;20075;-56
2022/05/22 13:12:09;;;;;;;0.95;0.60;;;28.20;70.00;;;;;;5016978;28;20060;-55
2022/05/22 13:14:43;;;;;;;0.40;0.38;;;28.50;70.70;;;;;;5034501;28;20140;-53
2022/05/22 13:17:10;;;;;;;0.77;0.52;;;29.00;73.80;;;;;;5006139;28;20216;-57
2022/05/22 13:19:51;;;;;;;0.93;0.60;;;29.20;74.20;;;;;;5017768;28;20045;-56
2022/05/22 13:22:32;;;;;;;1.23;1.00;;;29.50;69.40;;;;;;5038579;28;20128;-54